PILOTS ONLINE: 571    ATC ONLINE: 156

KRND

Randolph Air Force Base

Location

City Universal City
Country  United States
Latitude 29° 31' 46" N
Longitude 98° 16' 44" W
Elevation 761 ft
Type Large Airport

Map

Weather

METAR
2014/08/21 18:58
KRND 211858Z AUTO 17018G23KT 10SM FEW170 SCT210 36/17 A3002 RMK AO2 PK WND 18026/28 SLP156 T03620172
TAF
2014/08/21 17:48
TAF KRND 2117/2223 17012G20KT 9999 SCT030 QNH2998INS 
      TEMPO 2117/2203 15015G25KT 
      BECMG 2203/2204 17009KT 9999 SCT025 QNH2995INS 
      BECMG 2209/2210 17009KT 9999 BKN015 QNH2998INS 
      BECMG 2213/2214 18009KT 9999 SCT020 QNH3000INS TX37/2121Z TN24/2212Z 
      AMD 211737 LAST NO 
      AMDS AFT 2200 NEXT 2209

Runways

14L/32R 8351 ft / 200 ft
14R/32L 8353 ft / 200 ft

Outbound flights

Callsign Flying to Pilot ATD/STD ETA Aircraft

Inbound flights

Callsign Flying from Pilot ATD ETA Aircraft